Archiv-/Tagesdaten

--Timestamp---	Temp	Chill	HIndex	Humid	Dewpt	 Wind 	HiWind	WindDir	Rain 	Barom	Solar	 ET  	 UV 
--------------	----	-----	------	-----	-----	------	------	-------	-----	-----	-----	-----	----
20090826 00:00	17.5	17.5	17.5	91	16.0	5	16	180	0.4	1014.8	0	0.025	0.0
20090826 00:05	17.5	17.5	17.5	91	16.0	3	11	180	0.2	1014.6	0	0.000	0.0
20090826 00:10	17.4	17.4	17.4	91	16.0	5	8	225	0.2	1014.6	0	0.000	0.0
20090826 00:15	17.4	17.4	17.4	91	15.9	3	8	225	0.2	1014.5	0	0.000	0.0
20090826 00:20	17.3	17.3	17.3	91	15.8	3	6	225	0.4	1014.5	0	0.000	0.0
20090826 00:25	17.3	17.3	17.3	91	15.8	2	5	225	0.4	1014.5	0	0.000	0.0
20090826 00:30	17.2	17.2	17.2	91	15.7	0	6	225	0.2	1014.4	0	0.000	0.0
20090826 00:35	17.2	17.2	17.2	91	15.7	0	3	225	0.2	1014.3	0	0.000	0.0
20090826 00:40	17.2	17.2	17.2	91	15.7	0	3	225	0.2	1014.1	0	0.000	0.0
20090826 00:45	17.2	17.2	17.2	91	15.7	3	8	225	0.0	1014.1	0	0.000	0.0
20090826 00:50	17.2	17.2	17.2	92	15.9	0	6	225	0.2	1013.9	0	0.000	0.0
20090826 00:55	17.2	17.2	17.2	92	15.9	0	2	225	0.2	1013.9	0	0.000	0.0
20090826 01:00	17.2	17.2	17.2	92	15.9	2	5	225	0.0	1013.9	0	0.000	0.0
20090826 01:05	17.2	17.2	17.2	92	15.9	3	6	225	0.0	1014.0	0	0.000	0.0
20090826 01:10	17.1	17.1	17.1	92	15.8	2	5	225	0.0	1013.8	0	0.000	0.0
20090826 01:15	17.1	17.1	17.1	92	15.7	0	0	-100000	0.0	1013.7	0	0.000	0.0
20090826 01:20	17.1	17.1	17.1	92	15.7	0	3	225	0.0	1013.7	0	0.000	0.0
20090826 01:25	17.1	17.1	17.1	92	15.8	0	5	225	0.2	1013.5	0	0.000	0.0
20090826 01:30	17.1	17.1	17.1	92	15.8	2	5	225	0.0	1013.4	0	0.000	0.0
20090826 01:35	17.1	17.1	17.1	92	15.7	0	2	225	0.0	1013.5	0	0.000	0.0
20090826 01:40	17.1	17.1	17.1	92	15.8	0	2	225	0.0	1013.7	0	0.000	0.0
20090826 01:45	17.1	17.1	17.1	92	15.8	2	5	225	0.0	1013.8	0	0.000	0.0
20090826 01:50	17.1	17.1	17.1	92	15.7	3	10	225	0.0	1013.9	0	0.000	0.0
20090826 01:55	17.1	17.1	17.1	92	15.7	3	10	225	0.0	1013.9	0	0.000	0.0
20090826 02:00	17.0	17.0	17.0	92	15.7	2	8	225	0.0	1013.9	0	0.000	0.0
20090826 02:05	16.9	16.9	16.9	92	15.6	2	8	225	0.0	1013.7	0	0.000	0.0
20090826 02:10	17.0	17.0	17.0	92	15.7	2	6	225	0.0	1013.6	0	0.000	0.0
20090826 02:15	17.0	17.0	17.0	92	15.7	2	6	225	0.0	1013.5	0	0.000	0.0
20090826 02:20	17.0	17.0	17.0	92	15.7	0	5	225	0.0	1013.7	0	0.000	0.0
20090826 02:25	17.0	17.0	17.0	92	15.7	0	2	225	0.0	1013.9	0	0.000	0.0
20090826 02:30	17.0	17.0	17.0	92	15.7	0	3	225	0.0	1014.0	0	0.000	0.0
20090826 02:35	16.9	16.9	16.9	92	15.6	0	2	225	0.0	1014.0	0	0.000	0.0
20090826 02:40	16.9	16.9	16.9	92	15.6	0	2	225	0.0	1014.2	0	0.000	0.0
20090826 02:45	16.9	16.9	16.9	92	15.6	0	2	225	0.0	1014.0	0	0.000	0.0
20090826 02:50	16.9	16.9	16.9	92	15.6	0	0	-100000	0.0	1014.0	0	0.000	0.0
20090826 02:55	16.8	16.8	16.8	92	15.5	0	0	-100000	0.0	1014.0	0	0.000	0.0
20090826 03:00	16.8	16.8	16.8	92	15.5	0	0	-100000	0.0	1014.0	0	0.000	0.0
20090826 03:05	16.8	16.8	16.8	92	15.5	0	2	225	0.0	1014.0	0	0.000	0.0
20090826 03:10	16.8	16.8	16.8	92	15.5	0	0	-100000	0.0	1013.9	0	0.000	0.0
20090826 03:15	16.7	16.7	16.7	92	15.4	0	0	-100000	0.0	1014.0	0	0.000	0.0
20090826 03:20	16.7	16.7	16.7	92	15.4	0	0	-100000	0.0	1014.0	0	0.000	0.0
20090826 03:25	16.6	16.6	16.6	92	15.2	0	0	-100000	0.0	1014.1	0	0.000	0.0
20090826 03:30	16.6	16.6	16.6	92	15.2	0	0	-100000	0.0	1014.1	0	0.000	0.0
20090826 03:35	16.5	16.5	16.5	92	15.2	0	0	-100000	0.0	1014.1	0	0.000	0.0
20090826 03:40	16.5	16.5	16.5	92	15.2	0	0	-100000	0.0	1014.3	0	0.000	0.0
20090826 03:45	16.4	16.4	16.4	92	15.1	0	0	-100000	0.0	1014.2	0	0.000	0.0
20090826 03:50	16.4	16.4	16.4	92	15.1	0	0	-100000	0.0	1014.2	0	0.000	0.0
20090826 03:55	16.4	16.4	16.4	92	15.1	0	0	-100000	0.0	1014.3	0	0.000	0.0
20090826 04:00	16.3	16.3	16.3	92	15.0	0	0	-100000	0.0	1014.4	0	0.000	0.0
20090826 04:05	16.3	16.3	16.3	92	15.0	0	0	-100000	0.0	1014.4	0	0.000	0.0
20090826 04:10	16.2	16.2	16.2	93	15.1	0	0	-100000	0.0	1014.4	0	0.000	0.0
20090826 04:15	16.2	16.2	16.2	93	15.1	0	0	-100000	0.0	1014.4	0	0.000	0.0
20090826 04:20	16.2	16.2	16.2	93	15.1	0	0	-100000	0.0	1014.3	0	0.000	0.0
20090826 04:25	16.2	16.2	16.2	93	15.1	0	0	-100000	0.0	1014.3	0	0.000	0.0
20090826 04:30	16.2	16.2	16.2	93	15.0	0	0	-100000	0.0	1014.2	0	0.000	0.0
20090826 04:35	16.2	16.2	16.2	93	15.1	0	0	-100000	0.0	1014.2	0	0.000	0.0
20090826 04:40	16.2	16.2	16.2	93	15.1	0	0	-100000	0.0	1014.2	0	0.000	0.0
20090826 04:45	16.2	16.2	16.2	93	15.1	0	0	-100000	0.0	1014.2	0	0.000	0.0
20090826 04:50	16.2	16.2	16.2	93	15.1	0	0	-100000	0.0	1014.2	0	0.000	0.0
20090826 04:55	16.3	16.3	16.3	93	15.1	0	0	-100000	0.0	1014.3	0	0.000	0.0
20090826 05:00	16.3	16.3	16.3	93	15.2	0	0	-100000	0.0	1014.3	0	0.000	0.0
20090826 05:05	16.3	16.3	16.3	93	15.2	0	0	-100000	0.0	1014.4	0	0.000	0.0
20090826 05:10	16.3	16.3	16.3	93	15.2	0	5	225	0.0	1014.4	0	0.000	0.0
20090826 05:15	16.3	16.3	16.3	93	15.2	2	6	225	0.0	1014.4	0	0.000	0.0
20090826 05:20	16.3	16.3	16.3	93	15.2	0	2	225	0.0	1014.4	0	0.000	0.0
20090826 05:25	16.3	16.3	16.3	93	15.2	2	6	225	0.0	1014.5	0	0.000	0.0
20090826 05:30	16.3	16.3	16.3	93	15.2	2	6	225	0.0	1014.6	0	0.000	0.0
20090826 05:35	16.3	16.3	16.3	93	15.2	3	6	225	0.0	1014.6	0	0.000	0.0
20090826 05:40	16.3	16.3	16.3	93	15.2	2	5	225	0.0	1014.6	0	0.000	0.0
20090826 05:45	16.3	16.3	16.3	94	15.4	2	5	225	0.0	1014.6	0	0.000	0.0
20090826 05:50	16.3	16.3	16.3	93	15.2	0	2	225	0.0	1014.7	0	0.000	0.0
20090826 05:55	16.4	16.4	16.4	94	15.4	2	5	225	0.0	1014.7	0	0.000	0.0
20090826 06:00	16.4	16.4	16.4	93	15.3	0	5	225	0.0	1014.8	0	0.000	0.0
20090826 06:05	16.4	16.4	16.4	94	15.5	2	6	225	0.0	1014.9	0	0.000	0.0
20090826 06:10	16.4	16.4	16.4	93	15.3	2	6	225	0.0	1014.8	0	0.000	0.0
20090826 06:15	16.4	16.4	16.4	93	15.3	0	2	225	0.0	1014.9	0	0.000	0.0
20090826 06:20	16.4	16.4	16.4	93	15.3	0	3	225	0.0	1014.9	0	0.000	0.0
20090826 06:25	16.5	16.5	16.5	93	15.4	0	3	225	0.0	1015.0	0	0.000	0.0
20090826 06:30	16.5	16.5	16.5	93	15.4	3	6	225	0.0	1015.0	0	0.000	0.0
20090826 06:35	16.4	16.4	16.4	93	15.3	5	6	225	0.0	1015.1	5	0.000	0.0
20090826 06:40	16.4	16.4	16.4	93	15.3	5	8	225	0.0	1015.1	11	0.000	0.0
20090826 06:45	16.4	16.4	16.4	93	15.3	5	10	225	0.0	1015.1	14	0.000	0.0
20090826 06:50	16.4	16.4	16.4	93	15.3	5	8	225	0.0	1015.0	17	0.000	0.0
20090826 06:55	16.4	16.4	16.4	93	15.3	6	10	225	0.0	1015.0	20	0.000	0.0
20090826 07:00	16.4	16.4	16.4	93	15.3	5	8	225	0.0	1015.1	26	0.000	0.0
20090826 07:05	16.4	16.4	16.4	93	15.3	5	10	225	0.0	1015.3	31	0.000	0.0
20090826 07:10	16.4	16.4	16.4	93	15.3	2	6	225	0.0	1015.1	31	0.000	0.0
20090826 07:15	16.4	16.4	16.4	93	15.3	5	10	225	0.0	1015.2	29	0.000	0.0
20090826 07:20	16.4	16.4	16.4	93	15.3	3	6	225	0.0	1015.1	29	0.000	0.0
20090826 07:25	16.4	16.4	16.4	93	15.3	3	6	225	0.0	1015.2	31	0.000	0.0
20090826 07:30	16.4	16.4	16.4	93	15.3	3	8	225	0.0	1015.1	33	0.000	0.0
20090826 07:35	16.4	16.4	16.4	93	15.3	5	8	225	0.0	1015.3	39	0.000	0.0
20090826 07:40	16.5	16.5	16.5	93	15.4	3	6	225	0.0	1015.3	53	0.000	0.0
20090826 07:45	16.6	16.6	16.6	93	15.4	2	5	225	0.0	1015.2	56	0.000	0.0
20090826 07:50	16.6	16.6	16.6	93	15.5	2	5	225	0.0	1015.2	57	0.000	0.0
20090826 07:55	16.7	16.7	16.7	93	15.5	2	5	225	0.0	1015.3	51	0.000	0.0
20090826 08:00	16.7	16.7	16.7	93	15.6	3	6	225	0.0	1015.4	43	0.025	0.0
20090826 08:05	16.8	16.8	16.8	93	15.7	0	3	225	0.0	1015.6	35	0.000	0.0
20090826 08:10	16.8	16.8	16.8	93	15.7	2	5	225	0.0	1015.5	30	0.000	0.0
20090826 08:15	16.8	16.8	16.8	93	15.7	0	2	225	0.0	1015.4	30	0.000	0.0
20090826 08:20	16.8	16.8	16.8	93	15.7	0	0	-100000	0.0	1015.5	36	0.000	0.0
20090826 08:25	16.9	16.9	16.9	93	15.7	0	2	225	0.0	1015.4	47	0.000	0.0
20090826 08:30	16.9	16.9	16.9	93	15.8	0	0	-100000	0.0	1015.3	58	0.000	0.0
20090826 08:35	17.0	17.0	17.0	93	15.9	0	2	225	0.0	1015.3	64	0.000	0.0
20090826 08:40	17.1	17.1	17.1	93	15.9	2	5	225	0.0	1015.4	69	0.000	0.0
20090826 08:45	17.1	17.1	17.1	93	15.9	2	5	225	0.0	1015.3	74	0.000	0.0
20090826 08:50	17.1	17.1	17.1	92	15.7	3	6	225	0.0	1015.4	80	0.000	0.5
20090826 08:55	17.1	17.1	17.1	92	15.8	2	5	225	0.0	1015.4	84	0.000	0.5
20090826 09:00	17.2	17.2	17.2	92	15.9	0	5	225	0.0	1015.5	92	0.025	0.6
20090826 09:05	17.3	17.3	17.3	92	16.0	0	2	225	0.0	1015.7	102	0.000	0.7
20090826 09:10	17.4	17.4	17.4	92	16.1	0	3	225	0.0	1015.7	104	0.000	0.8
20090826 09:15	17.4	17.4	17.4	92	16.1	0	2	225	0.0	1015.7	111	0.000	0.9
20090826 09:20	17.5	17.5	17.5	91	16.0	2	5	225	0.0	1015.6	123	0.000	1.0
20090826 09:25	17.6	17.6	17.6	91	16.1	2	6	225	0.0	1015.8	126	0.000	1.0
20090826 09:30	17.7	17.7	17.7	90	16.0	2	6	225	0.0	1015.6	137	0.000	1.2
20090826 09:35	17.8	17.8	17.8	91	16.3	0	0	-100000	0.0	1015.6	143	0.000	1.3
20090826 09:40	17.9	17.9	17.9	90	16.3	0	3	225	0.0	1015.6	145	0.000	1.4
20090826 09:45	17.9	17.9	17.9	89	16.1	0	3	225	0.0	1015.6	148	0.000	1.5
20090826 09:50	18.1	18.1	18.1	89	16.2	0	5	225	0.0	1015.7	145	0.000	1.6
20090826 09:55	18.2	18.2	18.2	89	16.3	3	6	225	0.0	1015.8	164	0.000	1.6
20090826 10:00	18.3	18.3	18.3	89	16.4	2	6	225	0.0	1015.8	167	0.076	1.7
20090826 10:05	18.4	18.4	18.4	89	16.6	3	6	225	0.0	1015.8	198	0.000	1.9
20090826 10:10	18.6	18.6	18.6	88	16.5	2	5	225	0.0	1015.8	221	0.000	2.0
20090826 10:15	18.7	18.7	18.7	86	16.3	2	5	225	0.0	1015.8	222	0.000	1.9
20090826 10:20	18.7	18.7	18.7	86	16.3	2	6	225	0.0	1015.8	240	0.000	2.1
20090826 10:25	18.8	18.8	18.8	85	16.3	3	8	225	0.0	1015.7	233	0.000	2.1
20090826 10:30	18.9	18.9	18.9	84	16.2	0	0	-100000	0.0	1015.6	225	0.000	2.1
20090826 10:35	19.1	19.1	19.1	83	16.2	0	2	225	0.0	1015.6	242	0.000	2.2
20090826 10:40	19.2	19.2	19.2	82	16.1	0	2	225	0.0	1015.6	232	0.000	2.1
20090826 10:45	19.3	19.3	19.3	82	16.2	0	2	225	0.0	1015.6	235	0.000	2.2
20090826 10:50	19.4	19.4	19.4	80	15.8	0	2	225	0.0	1015.7	250	0.000	2.3
20090826 10:55	19.4	19.4	19.4	80	15.9	0	2	225	0.0	1015.8	240	0.000	2.2
20090826 11:00	19.5	19.5	19.5	80	16.0	0	3	225	0.0	1015.7	247	0.127	2.3
20090826 11:05	19.6	19.6	19.6	82	16.4	0	3	225	0.0	1016.0	292	0.000	2.6
20090826 11:10	19.7	19.7	19.7	81	16.3	3	8	225	0.0	1015.9	313	0.000	2.8
20090826 11:15	19.8	19.8	19.8	81	16.5	3	8	158	0.0	1015.7	286	0.000	2.7
20090826 11:20	19.9	19.9	19.9	81	16.5	3	10	135	0.0	1015.6	251	0.000	2.4
20090826 11:25	19.9	19.9	19.9	81	16.5	2	6	135	0.0	1015.7	242	0.000	2.3
20090826 11:30	20.0	20.0	20.0	81	16.6	0	6	135	0.0	1015.8	277	0.000	2.7
20090826 11:35	20.1	20.1	20.1	81	16.7	2	6	135	0.0	1015.8	388	0.000	3.4
20090826 11:40	20.2	20.2	20.2	80	16.6	2	5	135	0.0	1015.9	349	0.000	3.4
20090826 11:45	20.2	20.2	20.2	80	16.7	2	6	135	0.0	1016.0	312	0.000	3.3
20090826 11:50	20.3	20.3	20.3	79	16.5	3	8	135	0.0	1016.0	310	0.000	3.3
20090826 11:55	20.4	20.4	20.4	78	16.4	2	5	135	0.0	1015.9	322	0.000	3.4
20090826 12:00	20.5	20.5	20.5	78	16.5	2	5	135	0.0	1015.9	332	0.178	3.4
20090826 12:05	20.6	20.6	20.6	78	16.6	0	3	135	0.0	1015.8	322	0.000	3.3
20090826 12:10	20.7	20.7	20.7	78	16.7	2	6	135	0.0	1015.8	301	0.000	3.1
20090826 12:15	20.7	20.7	20.7	77	16.5	2	5	135	0.0	1015.8	284	0.000	2.9
20090826 12:20	20.6	20.6	20.6	77	16.4	2	5	135	0.0	1015.8	325	0.000	3.2
20090826 12:25	20.6	20.6	20.6	77	16.4	2	3	135	0.0	1015.9	343	0.000	3.5
20090826 12:30	20.7	20.7	20.7	76	16.3	3	6	135	0.0	1015.9	295	0.000	3.2
20090826 12:35	20.6	20.6	20.6	76	16.2	2	6	135	0.0	1015.8	273	0.000	2.8
20090826 12:40	20.7	20.7	20.7	77	16.5	2	6	135	0.0	1015.8	245	0.000	2.5
20090826 12:45	20.8	20.8	20.8	78	16.8	3	8	135	0.0	1015.8	226	0.000	2.3
20090826 12:50	20.8	20.8	20.8	78	16.8	2	5	135	0.0	1015.8	234	0.000	2.4
20090826 12:55	20.7	20.7	20.7	78	16.7	3	5	135	0.0	1015.8	233	0.000	2.3
20090826 13:00	20.7	20.7	20.7	77	16.5	2	8	135	0.0	1015.8	219	0.178	2.2
20090826 13:05	20.8	20.8	20.8	77	16.6	2	5	135	0.0	1015.8	194	0.000	2.0
20090826 13:10	20.8	20.8	20.8	78	16.8	0	3	135	0.0	1015.9	204	0.000	2.1
20090826 13:15	20.8	20.8	20.8	78	16.8	5	8	135	0.0	1015.9	222	0.000	2.2
20090826 13:20	20.8	20.8	20.8	77	16.6	2	5	135	0.0	1015.8	230	0.000	2.3
20090826 13:25	20.8	20.8	20.8	78	16.8	2	5	135	0.0	1015.7	259	0.000	2.6
20090826 13:30	20.9	20.9	20.9	78	16.9	2	5	135	0.0	1015.8	317	0.000	3.1
20090826 13:35	21.1	21.1	21.1	78	17.1	3	6	68	0.0	1015.7	557	0.000	4.6
20090826 13:40	21.3	21.3	21.3	78	17.3	5	8	68	0.0	1015.8	611	0.000	5.1
20090826 13:45	21.6	21.6	21.6	78	17.6	2	6	112	0.0	1015.5	442	0.000	4.2
20090826 13:50	22.0	22.0	22.0	76	17.6	2	6	112	0.0	1015.6	459	0.000	4.2
20090826 13:55	22.2	22.2	22.2	76	17.8	2	5	112	0.0	1015.6	449	0.000	4.1
20090826 14:00	22.3	22.3	22.3	75	17.6	3	6	68	0.0	1015.6	426	0.229	3.9
20090826 14:05	22.1	22.1	22.1	75	17.4	5	10	90	0.0	1015.5	442	0.000	3.9
20090826 14:10	21.9	21.9	21.9	76	17.5	2	5	45	0.0	1015.8	437	0.000	3.9
20090826 14:15	22.1	22.1	22.1	76	17.6	3	6	68	0.0	1015.4	469	0.000	4.0
20090826 14:20	22.1	22.1	22.1	75	17.4	2	6	68	0.0	1015.4	372	0.000	3.5
20090826 14:25	22.1	22.1	22.1	75	17.4	5	10	68	0.0	1015.4	337	0.000	3.2
20090826 14:30	22.1	22.1	22.1	76	17.6	2	5	68	0.0	1015.4	349	0.000	3.2
20090826 14:35	22.1	22.1	22.1	75	17.5	5	10	68	0.0	1015.4	440	0.000	3.6
20090826 14:40	22.2	22.2	22.2	75	17.5	2	6	68	0.0	1015.4	423	0.000	3.6
20090826 14:45	22.3	22.3	22.3	75	17.7	2	6	45	0.0	1015.4	347	0.000	3.1
20090826 14:50	22.4	22.4	22.4	73	17.3	3	10	90	0.0	1015.4	366	0.000	3.2
20090826 14:55	22.4	22.4	22.4	75	17.7	0	3	90	0.0	1015.5	387	0.000	3.3
20090826 15:00	22.4	22.4	22.4	75	17.8	3	8	68	0.0	1015.4	378	0.254	3.2
20090826 15:05	22.4	22.4	22.4	76	18.0	3	8	68	0.0	1015.5	408	0.000	3.2
20090826 15:10	22.5	22.5	22.5	75	17.8	5	8	45	0.0	1015.4	364	0.000	3.0
20090826 15:15	22.5	22.5	22.5	76	18.1	5	10	45	0.0	1015.3	450	0.000	3.4
20090826 15:20	22.6	22.6	22.6	74	17.7	6	8	68	0.0	1015.2	436	0.000	3.3
20090826 15:25	22.6	22.6	22.6	75	17.9	5	10	68	0.0	1015.2	396	0.000	3.1
20090826 15:30	22.7	22.7	22.7	75	18.0	2	5	68	0.0	1015.2	402	0.000	3.1
20090826 15:35	22.7	22.7	22.7	74	17.8	3	8	68	0.0	1015.2	337	0.000	2.8
20090826 15:40	22.6	22.6	22.6	75	17.9	5	11	45	0.0	1015.1	277	0.000	2.4
20090826 15:45	22.6	22.6	22.6	75	17.9	5	8	68	0.0	1015.1	307	0.000	2.4
20090826 15:50	22.7	22.7	22.7	76	18.2	5	11	68	0.0	1015.0	317	0.000	2.4
20090826 15:55	22.7	22.7	22.7	75	18.1	5	10	68	0.0	1015.0	332	0.000	2.5
20090826 16:00	22.8	22.8	22.8	75	18.1	6	11	68	0.0	1015.0	322	0.229	2.3
20090826 16:05	22.8	22.8	22.8	76	18.3	3	8	45	0.0	1015.0	285	0.000	2.2
20090826 16:10	22.8	22.8	22.8	76	18.4	3	6	45	0.0	1015.0	293	0.000	2.1
20090826 16:15	22.9	22.9	22.9	75	18.2	3	8	45	0.0	1015.0	289	0.000	2.1
20090826 16:20	22.9	22.9	22.9	75	18.2	5	11	45	0.0	1014.9	253	0.000	1.9
20090826 16:25	22.8	22.8	22.8	76	18.4	5	8	22	0.0	1014.9	226	0.000	1.7
20090826 16:30	22.8	22.8	22.8	75	18.1	5	8	68	0.0	1015.0	210	0.000	1.5
20090826 16:35	22.8	22.8	22.8	76	18.3	5	8	45	0.0	1015.0	199	0.000	1.4
20090826 16:40	22.8	22.8	22.8	76	18.3	2	5	45	0.0	1015.0	176	0.000	1.2
20090826 16:45	22.8	22.8	22.8	76	18.3	2	5	45	0.0	1015.0	172	0.000	1.2
20090826 16:50	22.8	22.8	22.8	76	18.3	2	3	45	0.0	1015.0	176	0.000	1.2
20090826 16:55	22.8	22.8	22.8	76	18.3	2	5	45	0.0	1015.0	166	0.000	1.1
20090826 17:00	22.7	22.7	22.7	77	18.5	3	6	45	0.0	1015.1	142	0.152	1.0
20090826 17:05	22.7	22.7	22.7	77	18.4	0	3	45	0.0	1015.1	132	0.000	0.8
20090826 17:10	22.6	22.6	22.6	77	18.4	2	6	22	0.0	1015.2	137	0.000	0.9
20090826 17:15	22.6	22.6	22.6	77	18.3	2	3	22	0.0	1015.2	140	0.000	0.9
20090826 17:20	22.6	22.6	22.6	78	18.5	0	3	22	0.0	1015.2	117	0.000	0.7
20090826 17:25	22.7	22.7	22.7	78	18.6	0	2	22	0.0	1015.2	99	0.000	0.6
20090826 17:30	22.6	22.6	22.6	78	18.6	0	3	22	0.0	1015.2	97	0.000	0.6
20090826 17:35	22.5	22.5	22.5	77	18.3	3	6	22	0.0	1015.2	89	0.000	0.5
20090826 17:40	22.4	22.4	22.4	78	18.4	0	3	22	0.0	1015.1	94	0.000	0.5
20090826 17:45	22.4	22.4	22.4	78	18.4	0	2	0	0.0	1015.1	98	0.000	0.6
20090826 17:50	22.4	22.4	22.4	79	18.6	0	2	0	0.0	1015.2	94	0.000	0.5
20090826 17:55	22.4	22.4	22.4	78	18.4	2	6	0	0.0	1015.2	96	0.000	0.5
20090826 18:00	22.3	22.3	22.3	78	18.3	3	8	22	0.0	1015.2	97	0.076	0.5
20090826 18:05	22.3	22.3	22.3	77	18.0	2	5	22	0.0	1015.2	96	0.000	0.0
20090826 18:10	22.2	22.2	22.2	78	18.2	2	5	22	0.0	1015.1	97	0.000	0.0
20090826 18:15	22.2	22.2	22.2	79	18.3	3	6	22	0.0	1015.0	109	0.000	0.0
20090826 18:20	22.2	22.2	22.2	79	18.3	3	6	45	0.0	1015.0	113	0.000	0.0
20090826 18:25	22.1	22.1	22.1	78	18.1	3	6	45	0.0	1015.0	109	0.000	0.0
20090826 18:30	22.1	22.1	22.1	79	18.2	2	5	22	0.0	1014.9	99	0.000	0.0
20090826 18:35	22.0	22.0	22.0	79	18.2	3	6	45	0.0	1015.0	94	0.000	0.0
20090826 18:40	21.9	21.9	21.9	79	18.1	3	6	45	0.0	1014.9	91	0.000	0.0
20090826 18:45	21.9	21.9	21.9	79	18.1	2	6	45	0.0	1014.9	93	0.000	0.0
20090826 18:50	21.9	21.9	21.9	80	18.3	0	2	45	0.0	1014.9	95	0.000	0.0
20090826 18:55	21.9	21.9	21.9	80	18.3	2	5	45	0.0	1014.9	91	0.000	0.0
20090826 19:00	21.9	21.9	21.9	80	18.3	3	6	45	0.0	1014.9	90	0.076	0.0
20090826 19:05	21.9	21.9	21.9	80	18.3	3	6	45	0.0	1014.9	86	0.000	0.0
20090826 19:10	21.9	21.9	21.9	80	18.3	2	6	45	0.0	1014.9	81	0.000	0.0
20090826 19:15	21.9	21.9	21.9	81	18.5	2	6	45	0.0	1014.9	81	0.000	0.0
20090826 19:20	21.9	21.9	21.9	81	18.5	2	5	45	0.0	1014.9	81	0.000	0.0
20090826 19:25	21.8	21.8	21.8	80	18.2	2	5	45	0.0	1015.0	76	0.000	0.0
20090826 19:30	21.8	21.8	21.8	81	18.4	2	5	45	0.0	1015.1	69	0.000	0.0
20090826 19:35	21.8	21.8	21.8	80	18.2	2	5	45	0.0	1015.1	61	0.000	0.0
20090826 19:40	21.7	21.7	21.7	80	18.1	2	6	45	0.0	1015.1	54	0.000	0.0
20090826 19:45	21.7	21.7	21.7	81	18.3	0	2	45	0.0	1015.1	42	0.000	0.0
20090826 19:50	21.6	21.6	21.6	81	18.1	0	2	45	0.0	1015.2	31	0.000	0.0
20090826 19:55	21.5	21.5	21.5	82	18.3	0	2	45	0.0	1015.2	22	0.000	0.0
20090826 20:00	21.3	21.3	21.3	82	18.1	0	3	45	0.0	1015.2	16	0.051	0.0
20090826 20:05	21.2	21.2	21.2	83	18.2	0	3	45	0.0	1015.2	11	0.000	0.0
20090826 20:10	21.1	21.1	21.1	83	18.1	0	3	45	0.0	1015.2	4	0.000	0.0
20090826 20:15	20.9	20.9	20.9	83	17.9	2	3	45	0.0	1015.3	0	0.000	0.0
20090826 20:20	20.8	20.8	20.8	84	18.0	0	2	45	0.0	1015.4	0	0.000	0.0
20090826 20:25	20.7	20.7	20.7	84	17.9	0	2	45	0.0	1015.4	0	0.000	0.0
20090826 20:30	20.6	20.6	20.6	85	17.9	0	2	45	0.0	1015.5	0	0.000	0.0
20090826 20:35	20.5	20.5	20.5	85	17.9	0	0	-100000	0.0	1015.5	0	0.000	0.0
20090826 20:40	20.4	20.4	20.4	85	17.8	0	0	-100000	0.0	1015.7	0	0.000	0.0
20090826 20:45	20.3	20.3	20.3	86	17.9	0	0	-100000	0.0	1015.7	0	0.000	0.0
20090826 20:50	20.2	20.2	20.2	86	17.7	0	2	45	0.0	1015.9	0	0.000	0.0
20090826 20:55	20.1	20.1	20.1	87	17.8	0	0	-100000	0.0	1015.9	0	0.000	0.0
20090826 21:00	20.0	20.0	20.0	87	17.8	0	0	-100000	0.0	1015.9	0	0.000	0.0
20090826 21:05	19.9	19.9	19.9	87	17.7	0	0	-100000	0.0	1015.8	0	0.000	0.0
20090826 21:10	19.8	19.8	19.8	88	17.7	0	0	-100000	0.0	1015.8	0	0.000	0.0
20090826 21:15	19.7	19.7	19.7	88	17.7	0	0	-100000	0.0	1015.9	0	0.000	0.0
20090826 21:20	19.6	19.6	19.6	88	17.6	0	0	-100000	0.0	1015.9	0	0.000	0.0
20090826 21:25	19.5	19.5	19.5	88	17.5	0	0	-100000	0.0	1015.9	0	0.000	0.0
20090826 21:30	19.4	19.4	19.4	88	17.4	0	0	-100000	0.0	1016.0	0	0.000	0.0
20090826 21:35	19.3	19.3	19.3	88	17.3	0	0	-100000	0.0	1016.1	0	0.000	0.0
20090826 21:40	19.3	19.3	19.3	88	17.2	0	0	-100000	0.0	1016.0	0	0.000	0.0
20090826 21:45	19.3	19.3	19.3	88	17.2	0	0	-100000	0.0	1016.0	0	0.000	0.0
20090826 21:50	19.2	19.2	19.2	88	17.2	0	0	-100000	0.0	1016.0	0	0.000	0.0
20090826 21:55	19.2	19.2	19.2	88	17.2	0	0	-100000	0.0	1016.0	0	0.000	0.0
20090826 22:00	19.2	19.2	19.2	89	17.4	0	0	-100000	0.0	1016.1	0	0.000	0.0
20090826 22:05	19.2	19.2	19.2	88	17.1	0	0	-100000	0.0	1015.9	0	0.000	0.0
20090826 22:10	19.2	19.2	19.2	88	17.1	0	0	-100000	0.0	1015.9	0	0.000	0.0
20090826 22:15	19.2	19.2	19.2	89	17.3	0	2	45	0.0	1015.7	0	0.000	0.0
20090826 22:20	19.2	19.2	19.2	89	17.3	0	2	45	0.0	1015.7	0	0.000	0.0
20090826 22:25	19.2	19.2	19.2	89	17.3	0	0	-100000	0.0	1015.7	0	0.000	0.0
20090826 22:30	19.2	19.2	19.2	89	17.3	0	0	-100000	0.0	1015.7	0	0.000	0.0
20090826 22:35	19.2	19.2	19.2	89	17.3	0	0	-100000	0.0	1015.7	0	0.000	0.0
20090826 22:40	19.2	19.2	19.2	89	17.3	0	0	-100000	0.0	1015.7	0	0.000	0.0
20090826 22:45	19.2	19.2	19.2	89	17.3	0	0	-100000	0.0	1015.7	0	0.000	0.0
20090826 22:50	19.1	19.1	19.1	90	17.4	0	0	-100000	0.0	1015.7	0	0.000	0.0
20090826 22:55	19.2	19.2	19.2	90	17.5	0	2	45	0.0	1015.7	0	0.000	0.0
20090826 23:00	19.1	19.1	19.1	90	17.4	0	0	-100000	0.0	1015.8	0	0.000	0.0
20090826 23:05	19.1	19.1	19.1	90	17.4	0	0	-100000	0.0	1015.7	0	0.000	0.0
20090826 23:10	19.2	19.2	19.2	90	17.5	0	2	45	0.0	1015.5	0	0.000	0.0
20090826 23:15	19.2	19.2	19.2	90	17.5	0	0	-100000	0.0	1015.6	0	0.000	0.0
20090826 23:20	19.1	19.1	19.1	90	17.4	0	2	45	0.0	1015.9	0	0.000	0.0
20090826 23:25	19.1	19.1	19.1	90	17.4	0	2	45	0.0	1015.9	0	0.000	0.0
20090826 23:30	19.1	19.1	19.1	91	17.5	0	0	-100000	0.0	1015.9	0	0.000	0.0
20090826 23:35	19.1	19.1	19.1	91	17.5	0	0	-100000	0.0	1015.9	0	0.000	0.0
20090826 23:40	19.0	19.0	19.0	91	17.5	0	0	-100000	0.0	1015.9	0	0.000	0.0
20090826 23:45	18.9	18.9	18.9	90	17.3	0	2	45	0.0	1016.0	0	0.000	0.0
20090826 23:50	18.7	18.7	18.7	90	17.0	0	0	-100000	0.0	1016.1	0	0.000	0.0
20090826 23:55	18.6	18.6	18.6	90	16.9	0	0	-100000	0.0	1016.1	0	0.000	0.0



Please note the license to use and transfer of this data:
http://creativecommons.org/licenses/by-nc-sa/3.0/deed.en

Bitte beachten sie die Lizenz zur Verwertung und Weitergabe der Daten:
http://creativecommons.org/licenses/by-nc-sa/3.0/deed.de

zurück zur Übersicht der Archivdaten (Monats und Tagesdaten)

Cookies helfen bei der Bereitstellung von Inhalten. Durch die Nutzung dieser Seiten erklärst du dich damit einverstanden, dass Cookies auf deinem Rechner gespeichert werden. Weitere Information